createdAt,value
2023-05-20T00:00:51.238Z,6.55
2023-05-20T00:03:18.519Z,5.88
2023-05-20T00:05:45.589Z,5.88
2023-05-20T00:08:12.602Z,6.65
2023-05-20T00:10:39.689Z,6.60
2023-05-20T00:13:06.983Z,6.65
2023-05-20T00:15:34.780Z,6.88
2023-05-20T00:18:02.314Z,7.05
2023-05-20T00:20:29.290Z,7.15
2023-05-20T00:22:56.317Z,6.78
2023-05-20T00:25:23.362Z,7.22
2023-05-20T00:27:50.413Z,6.85
2023-05-20T00:30:17.345Z,6.57
2023-05-20T00:32:44.405Z,6.25
2023-05-20T00:35:11.699Z,6.43
2023-05-20T00:37:38.777Z,6.13
2023-05-20T00:40:06.659Z,6.25
2023-05-20T00:42:33.674Z,6.35
2023-05-20T00:45:00.760Z,6.22
2023-05-20T00:47:30.849Z,6.53
2023-05-20T00:49:58.008Z,5.88
2023-05-20T00:52:25.022Z,6.28
2023-05-20T00:54:52.185Z,6.32
2023-05-20T00:57:20.059Z,6.57
2023-05-20T00:59:47.590Z,6.45
2023-05-20T01:02:14.651Z,6.90
2023-05-20T01:04:46.710Z,6.80
2023-05-20T01:07:15.531Z,6.30
2023-05-20T01:09:42.612Z,6.07
2023-05-20T01:12:16.868Z,6.25
2023-05-20T01:15:00.444Z,6.18
2023-05-20T01:17:31.459Z,5.93
2023-05-20T01:19:59.631Z,6.55
2023-05-20T01:22:28.037Z,6.55
2023-05-20T01:24:55.404Z,6.38
2023-05-20T01:27:23.636Z,6.18
2023-05-20T01:29:51.415Z,6.45
2023-05-20T01:32:23.055Z,6.93
2023-05-20T01:34:51.222Z,5.85
2023-05-20T01:37:19.594Z,6.22
2023-05-20T01:39:46.956Z,6.45
2023-05-20T01:42:14.214Z,6.75
2023-05-20T01:44:41.995Z,6.32
2023-05-20T01:47:09.052Z,6.40
2023-05-20T01:49:36.191Z,6.05
2023-05-20T01:52:03.535Z,6.18
2023-05-20T01:54:30.714Z,6.72
2023-05-20T01:56:57.702Z,6.63
2023-05-20T01:59:24.766Z,5.72
2023-05-20T02:01:51.914Z,6.38
2023-05-20T02:04:19.285Z,7.07
2023-05-20T02:06:46.572Z,6.82
2023-05-20T02:09:13.705Z,6.30
2023-05-20T02:11:40.915Z,7.00
2023-05-20T02:14:08.060Z,5.97
2023-05-20T02:16:35.221Z,6.97
2023-05-20T02:19:02.348Z,6.45
2023-05-20T02:21:29.470Z,6.60
2023-05-20T02:23:56.478Z,6.63
2023-05-20T02:26:23.739Z,6.78
2023-05-20T02:28:51.053Z,6.65
2023-05-20T02:31:18.409Z,7.30
2023-05-20T02:33:46.098Z,6.72
2023-05-20T02:36:13.261Z,6.90
2023-05-20T02:38:40.308Z,6.82
2023-05-20T02:41:07.377Z,6.75
2023-05-20T02:43:34.499Z,6.38
2023-05-20T02:46:02.048Z,6.47
2023-05-20T02:48:29.093Z,7.40
2023-05-20T02:50:56.320Z,6.93
2023-05-20T02:53:23.324Z,7.57
2023-05-20T02:55:50.577Z,7.25
2023-05-20T02:58:17.849Z,6.63
2023-05-20T03:00:45.065Z,6.65
2023-05-20T03:03:13.705Z,7.70
2023-05-20T03:05:42.598Z,6.97
2023-05-20T03:08:10.069Z,6.78
2023-05-20T03:10:40.405Z,6.68
2023-05-20T03:13:09.121Z,6.65
2023-05-20T03:15:45.669Z,7.30
2023-05-20T03:18:13.769Z,6.47
2023-05-20T03:20:41.695Z,6.38
2023-05-20T03:23:09.253Z,6.47
2023-05-20T03:25:37.785Z,7.13
2023-05-20T03:28:05.702Z,6.72
2023-05-20T03:30:35.111Z,7.20
2023-05-20T03:33:03.371Z,6.53
2023-05-20T03:35:30.622Z,7.18
2023-05-20T03:37:58.754Z,6.78
2023-05-20T03:40:26.279Z,7.03
2023-05-20T03:42:53.652Z,7.05
2023-05-20T03:45:22.098Z,6.72
2023-05-20T03:47:58.154Z,6.65
2023-05-20T03:50:25.338Z,6.72
2023-05-20T03:52:52.414Z,7.63
2023-05-20T03:55:22.070Z,6.82
2023-05-20T03:57:49.287Z,7.28
2023-05-20T04:00:17.197Z,7.43
2023-05-20T04:02:44.179Z,7.25
2023-05-20T04:05:14.089Z,7.90
2023-05-20T04:07:42.207Z,7.32
2023-05-20T04:10:10.152Z,8.52
2023-05-20T04:12:38.400Z,8.23
2023-05-20T04:15:06.903Z,7.78
2023-05-20T04:17:43.718Z,7.90
2023-05-20T04:20:11.517Z,7.50
2023-05-20T04:22:39.783Z,8.63
2023-05-20T04:25:07.314Z,7.80
2023-05-20T04:27:34.404Z,8.85
2023-05-20T04:30:02.672Z,8.40
2023-05-20T04:32:34.797Z,9.23
2023-05-20T04:35:08.490Z,8.45
2023-05-20T04:37:37.510Z,8.30
2023-05-20T04:40:09.372Z,9.07
2023-05-20T04:42:37.920Z,8.75
2023-05-20T04:45:06.151Z,9.40
2023-05-20T04:47:39.309Z,8.23
2023-05-20T04:50:16.288Z,8.88
2023-05-20T04:52:43.854Z,8.25
2023-05-20T04:55:11.967Z,9.35
2023-05-20T04:57:42.823Z,8.80
2023-05-20T05:00:11.360Z,8.88
2023-05-20T05:02:39.696Z,8.40
2023-05-20T05:05:07.373Z,8.90
2023-05-20T05:07:34.460Z,8.68
2023-05-20T05:10:01.689Z,8.73
2023-05-20T05:12:30.782Z,8.93
2023-05-20T05:14:59.374Z,8.95
2023-05-20T05:17:28.975Z,8.70
2023-05-20T05:19:57.477Z,8.60
2023-05-20T05:22:26.066Z,10.25
2023-05-20T05:24:53.156Z,9.55
2023-05-20T05:27:21.125Z,9.05
2023-05-20T05:29:48.184Z,9.35
2023-05-20T05:32:15.206Z,8.85
2023-05-20T05:34:42.280Z,9.23
2023-05-20T05:37:09.248Z,8.75
2023-05-20T05:39:37.860Z,9.60
2023-05-20T05:42:05.673Z,9.43
2023-05-20T05:44:33.956Z,9.18
2023-05-20T05:47:01.110Z,9.13
2023-05-20T05:49:28.303Z,9.35
2023-05-20T05:51:55.321Z,9.40
2023-05-20T05:54:22.351Z,9.60
2023-05-20T05:56:51.892Z,10.27
2023-05-20T05:59:19.300Z,9.35
2023-05-20T06:01:46.645Z,9.27
2023-05-20T06:04:14.959Z,9.30
2023-05-20T06:06:42.153Z,9.40
2023-05-20T06:09:09.142Z,8.93
2023-05-20T06:11:36.773Z,9.27
2023-05-20T06:14:03.832Z,9.40
2023-05-20T06:16:31.216Z,9.68
2023-05-20T06:19:02.652Z,9.65
2023-05-20T06:21:32.735Z,9.07
2023-05-20T06:24:00.160Z,9.35
2023-05-20T06:26:27.529Z,9.10
2023-05-20T06:28:54.562Z,9.25
2023-05-20T06:31:22.412Z,9.63
2023-05-20T06:33:50.658Z,9.20
2023-05-20T06:36:17.838Z,9.38
2023-05-20T06:38:46.482Z,9.02
2023-05-20T06:41:15.643Z,9.68
2023-05-20T06:43:42.646Z,9.30
2023-05-20T06:46:17.347Z,9.23
2023-05-20T06:48:53.899Z,9.13
2023-05-20T06:51:20.936Z,9.00
2023-05-20T06:53:49.664Z,9.07
2023-05-20T06:56:17.061Z,9.10
2023-05-20T06:58:45.176Z,9.38
2023-05-20T07:01:12.341Z,8.45
2023-05-20T07:03:40.643Z,8.82
2023-05-20T07:06:07.902Z,9.15
2023-05-20T07:08:35.411Z,8.85
2023-05-20T07:11:02.658Z,8.10
2023-05-20T07:13:30.770Z,8.88
2023-05-20T07:15:58.784Z,8.40
2023-05-20T07:18:26.775Z,8.43
2023-05-20T07:20:56.982Z,9.02
2023-05-20T07:23:47.292Z,7.93
2023-05-20T07:26:15.511Z,8.93
2023-05-20T07:28:42.594Z,8.85
2023-05-20T07:31:09.630Z,8.23
2023-05-20T07:33:42.471Z,8.32
2023-05-20T07:36:11.294Z,8.70
2023-05-20T07:38:41.291Z,7.95
2023-05-20T07:41:12.772Z,8.00
2023-05-20T07:43:39.838Z,7.93
2023-05-20T07:46:07.440Z,8.10
2023-05-20T07:48:34.505Z,8.05
2023-05-20T07:51:01.825Z,8.23
2023-05-20T07:53:29.463Z,7.75
2023-05-20T07:55:57.314Z,9.20
2023-05-20T07:58:27.907Z,7.55
2023-05-20T08:00:55.170Z,8.10
2023-05-20T08:03:22.902Z,6.85
2023-05-20T08:05:56.901Z,7.07
2023-05-20T08:08:25.006Z,7.88
2023-05-20T08:10:56.166Z,6.50
2023-05-20T08:13:25.673Z,5.75
2023-05-20T08:15:54.867Z,5.65
2023-05-20T08:18:22.611Z,5.75
2023-05-20T08:20:50.548Z,6.03
2023-05-20T08:23:17.759Z,5.95
2023-05-20T08:25:46.962Z,6.15
2023-05-20T08:28:14.566Z,6.55
2023-05-20T08:30:41.810Z,6.20
2023-05-20T08:33:09.210Z,6.30
2023-05-20T08:35:37.861Z,6.45
2023-05-20T08:38:05.234Z,6.85
2023-05-20T08:40:32.405Z,7.05
2023-05-20T08:42:59.458Z,6.15
2023-05-20T08:45:28.725Z,6.40
2023-05-20T08:48:01.135Z,6.22
2023-05-20T08:50:28.387Z,6.13
2023-05-20T08:52:55.712Z,6.63
2023-05-20T08:56:00.905Z,5.82
2023-05-20T08:58:29.541Z,6.00
2023-05-20T09:00:56.767Z,5.88
2023-05-20T09:03:25.669Z,5.65
2023-05-20T09:05:53.553Z,6.20
2023-05-20T09:08:20.924Z,5.53
2023-05-20T09:10:47.937Z,5.50
2023-05-20T09:13:14.928Z,5.20
2023-05-20T09:15:41.980Z,5.82
2023-05-20T09:18:09.715Z,5.85
2023-05-20T09:20:37.545Z,5.32
2023-05-20T09:23:09.797Z,5.57
2023-05-20T09:25:37.430Z,5.38
2023-05-20T09:28:08.878Z,5.50
2023-05-20T09:30:35.997Z,5.10
2023-05-20T09:33:05.216Z,5.70
2023-05-20T09:35:35.757Z,5.07
2023-05-20T09:38:03.525Z,5.45
2023-05-20T09:40:30.459Z,5.20
2023-05-20T09:43:05.393Z,4.90
2023-05-20T09:45:32.521Z,5.00
2023-05-20T09:48:00.925Z,5.20
2023-05-20T09:50:28.813Z,4.82
2023-05-20T09:52:56.016Z,4.65
2023-05-20T09:55:24.399Z,4.63
2023-05-20T09:57:51.943Z,4.93
2023-05-20T10:00:19.877Z,4.18
2023-05-20T10:02:48.791Z,4.60
2023-05-20T10:05:25.979Z,4.40
2023-05-20T10:07:59.193Z,4.50
2023-05-20T10:10:48.580Z,3.80
2023-05-20T10:14:02.980Z,3.58
2023-05-20T10:17:10.433Z,3.78
2023-05-20T10:19:37.493Z,3.97
2023-05-20T10:22:08.873Z,3.90
2023-05-20T10:24:38.064Z,3.92
2023-05-20T10:27:07.954Z,4.25
2023-05-20T10:29:52.166Z,4.38
2023-05-20T10:32:32.490Z,4.30
2023-05-20T10:35:09.388Z,4.55
2023-05-20T10:37:44.154Z,4.38
2023-05-20T10:40:12.942Z,3.85
2023-05-20T10:42:40.569Z,4.63
2023-05-20T10:45:08.297Z,3.97
2023-05-20T10:47:35.830Z,4.28
2023-05-20T10:50:05.006Z,4.55
2023-05-20T10:52:36.934Z,4.13
2023-05-20T10:55:05.104Z,4.07
2023-05-20T10:57:35.363Z,3.97
2023-05-20T11:00:02.406Z,3.35
2023-05-20T11:02:29.523Z,3.78
2023-05-20T11:04:58.332Z,4.03
2023-05-20T11:07:29.086Z,3.97
2023-05-20T11:09:56.954Z,4.07
2023-05-20T11:12:24.826Z,4.10
2023-05-20T11:14:51.903Z,4.03
2023-05-20T11:17:22.058Z,3.95
2023-05-20T11:19:49.137Z,4.05
2023-05-20T11:22:16.159Z,4.15
2023-05-20T11:24:43.208Z,3.75
2023-05-20T11:27:10.323Z,3.90
2023-05-20T11:29:37.339Z,3.80
2023-05-20T11:32:04.934Z,3.72
2023-05-20T11:34:36.613Z,3.90
2023-05-20T11:37:07.491Z,3.88
2023-05-20T11:39:34.770Z,3.85
2023-05-20T11:42:01.801Z,4.00
2023-05-20T11:44:28.846Z,3.78
2023-05-20T11:47:00.519Z,3.50
2023-05-20T11:49:28.043Z,3.65
2023-05-20T11:51:55.050Z,4.15
2023-05-20T11:54:22.973Z,3.55
2023-05-20T11:56:50.104Z,3.95
2023-05-20T11:59:17.189Z,3.58
2023-05-20T12:01:44.527Z,3.92
2023-05-20T12:04:13.529Z,3.47
2023-05-20T12:06:40.894Z,3.42
2023-05-20T12:09:08.578Z,3.60
2023-05-20T12:11:41.228Z,3.35
2023-05-20T12:14:09.031Z,3.20
2023-05-20T12:16:36.640Z,3.35
2023-05-20T12:19:04.200Z,3.50
2023-05-20T12:21:31.653Z,3.00
2023-05-20T12:23:59.685Z,3.40
2023-05-20T12:26:27.753Z,3.22
2023-05-20T12:28:55.148Z,3.72
2023-05-20T12:31:22.259Z,3.60
2023-05-20T12:33:49.357Z,3.50
2023-05-20T12:36:16.534Z,3.22
2023-05-20T12:38:43.585Z,3.60
2023-05-20T12:41:10.566Z,3.35
2023-05-20T12:43:37.880Z,3.42
2023-05-20T12:46:05.058Z,3.65
2023-05-20T12:48:32.234Z,3.10
2023-05-20T12:50:59.792Z,3.22
2023-05-20T12:53:26.776Z,3.35
2023-05-20T12:55:53.798Z,3.33
2023-05-20T12:58:21.042Z,2.83
2023-05-20T13:00:48.357Z,3.35
2023-05-20T13:03:15.755Z,3.30
2023-05-20T13:05:42.812Z,3.45
2023-05-20T13:08:11.172Z,3.72
2023-05-20T13:10:38.528Z,3.50
2023-05-20T13:13:05.682Z,3.67
2023-05-20T13:15:33.609Z,3.33
2023-05-20T13:18:05.960Z,2.78
2023-05-20T13:20:33.317Z,3.47
2023-05-20T13:23:00.601Z,2.88
2023-05-20T13:25:28.056Z,2.95
2023-05-20T13:27:55.194Z,3.10
2023-05-20T13:30:22.239Z,3.63
2023-05-20T13:32:49.428Z,3.17
2023-05-20T13:35:17.014Z,3.17
2023-05-20T13:37:44.054Z,2.70
2023-05-20T13:40:11.823Z,3.55
2023-05-20T13:42:38.798Z,4.03
2023-05-20T13:45:06.502Z,3.20
2023-05-20T14:05:23.281Z,3.10
2023-05-20T14:07:50.263Z,2.97
2023-05-20T14:10:17.420Z,3.20
2023-05-20T14:12:48.166Z,3.03
2023-05-20T14:15:15.446Z,3.75
2023-05-20T14:17:42.516Z,6.78
2023-05-20T14:33:17.673Z,2.50
2023-05-20T14:35:44.708Z,3.25
2023-05-20T14:38:12.167Z,3.00
2023-05-20T14:40:39.257Z,2.67
2023-05-20T14:43:06.293Z,5.10
2023-05-20T14:45:33.577Z,2.65
2023-05-20T14:48:00.633Z,2.58
2023-05-20T14:50:27.721Z,3.15
2023-05-20T14:52:54.727Z,3.10
2023-05-20T14:55:21.735Z,3.10
2023-05-20T14:57:48.803Z,2.60
2023-05-20T15:00:16.627Z,2.80
2023-05-20T15:02:43.798Z,2.40
2023-05-20T15:05:12.299Z,2.88
2023-05-20T15:07:39.685Z,2.70
2023-05-20T15:10:07.848Z,2.60
2023-05-20T15:12:35.131Z,2.72
2023-05-20T15:15:02.218Z,2.40
2023-05-20T15:17:29.339Z,2.80
2023-05-20T15:19:56.447Z,2.95
2023-05-20T15:22:23.532Z,3.30
2023-05-20T15:24:50.777Z,3.30
2023-05-20T15:27:18.028Z,2.97
2023-05-20T15:29:45.447Z,2.88
2023-05-20T15:32:12.483Z,2.45
2023-05-20T15:34:39.540Z,2.83
2023-05-20T15:37:06.885Z,2.72
2023-05-20T15:39:37.089Z,3.03
2023-05-20T15:42:05.269Z,2.83
2023-05-20T15:44:32.484Z,2.97
2023-05-20T15:46:59.559Z,2.65
2023-05-20T15:49:26.654Z,2.95
2023-05-20T15:52:02.986Z,2.80
2023-05-20T15:54:32.273Z,2.80
2023-05-20T15:56:59.327Z,2.90
2023-05-20T15:59:26.405Z,2.60
2023-05-20T16:01:53.673Z,2.55
2023-05-20T16:04:21.040Z,2.42
2023-05-20T16:06:48.231Z,2.80
2023-05-20T16:09:15.349Z,2.75
2023-05-20T16:11:42.331Z,2.50
2023-05-20T16:14:09.285Z,2.53
2023-05-20T16:16:36.461Z,2.45
2023-05-20T16:19:03.607Z,2.65
2023-05-20T16:21:31.346Z,2.70
2023-05-20T16:23:58.699Z,3.08
2023-05-20T16:26:26.208Z,2.83
2023-05-20T16:28:53.168Z,2.83
2023-05-20T16:31:20.302Z,2.75
2023-05-20T16:33:48.120Z,2.38
2023-05-20T16:36:15.130Z,2.58
2023-05-20T16:38:42.269Z,2.72
2023-05-20T16:41:09.357Z,2.83
2023-05-20T16:43:36.302Z,3.05
2023-05-20T16:46:03.510Z,2.78
2023-05-20T16:48:30.595Z,2.50
2023-05-20T16:50:58.019Z,2.70
2023-05-20T16:53:25.043Z,2.40
2023-05-20T16:55:52.449Z,2.72
2023-05-20T16:58:19.592Z,2.80
2023-05-20T17:00:46.760Z,3.10
2023-05-20T17:03:14.474Z,2.75
2023-05-20T17:05:41.493Z,3.10
2023-05-20T17:08:08.485Z,2.80
2023-05-20T17:10:35.712Z,2.90
2023-05-20T17:13:04.048Z,3.33
2023-05-20T17:15:32.872Z,3.00
2023-05-20T17:18:00.067Z,3.00
2023-05-20T17:20:27.329Z,3.08
2023-05-20T17:22:54.318Z,3.00
2023-05-20T17:25:21.455Z,4.75
2023-05-20T17:27:48.449Z,11.63
2023-05-20T17:30:15.925Z,10.95
2023-05-20T17:32:43.065Z,7.07
2023-05-20T17:35:10.344Z,4.32
2023-05-20T17:37:37.818Z,3.28
2023-05-20T17:40:08.003Z,3.10
2023-05-20T17:42:35.167Z,3.00
2023-05-20T17:45:02.158Z,2.97
2023-05-20T17:47:29.319Z,3.00
2023-05-20T17:49:56.449Z,2.90
2023-05-20T17:52:23.863Z,2.88
2023-05-20T17:54:51.183Z,3.47
2023-05-20T17:57:19.063Z,3.17
2023-05-20T17:59:46.024Z,3.20
2023-05-20T18:02:13.241Z,3.28
2023-05-20T18:04:40.254Z,2.72
2023-05-20T18:07:07.574Z,4.35
2023-05-20T18:09:34.561Z,3.55
2023-05-20T18:12:01.622Z,3.70
2023-05-20T18:14:28.791Z,2.80
2023-05-20T18:16:57.342Z,2.60
2023-05-20T18:19:25.173Z,3.08
2023-05-20T18:21:52.325Z,3.15
2023-05-20T18:24:20.603Z,2.70
2023-05-20T18:26:47.777Z,2.50
2023-05-20T18:44:29.925Z,2.60
2023-05-20T18:46:56.896Z,2.30
2023-05-20T18:49:23.924Z,2.22
2023-05-20T18:51:50.999Z,2.42
2023-05-20T18:54:18.214Z,2.60
2023-05-20T18:56:48.335Z,2.47
2023-05-20T18:59:15.349Z,2.58
2023-05-20T19:01:42.546Z,2.65
2023-05-20T19:04:09.537Z,2.70
2023-05-20T19:06:37.646Z,2.38
2023-05-20T19:09:04.789Z,2.40
2023-05-20T19:11:32.023Z,2.33
2023-05-20T19:13:59.220Z,2.28
2023-05-20T19:16:26.376Z,2.08
2023-05-20T19:18:53.507Z,2.13
2023-05-20T19:21:20.500Z,2.17
2023-05-20T19:23:48.988Z,2.10
2023-05-20T19:26:16.120Z,2.10
2023-05-20T19:28:43.221Z,2.38
2023-05-20T19:31:10.205Z,3.28
2023-05-20T19:33:37.478Z,2.50
2023-05-20T19:36:05.747Z,2.38
2023-05-20T19:38:32.951Z,2.45
2023-05-20T19:40:59.933Z,2.85
2023-05-20T19:43:26.990Z,2.40
2023-05-20T19:45:54.120Z,2.45
2023-05-20T19:48:22.311Z,2.80
2023-05-20T19:50:49.836Z,3.05
2023-05-20T19:53:16.983Z,2.50
2023-05-20T19:55:43.946Z,2.83
2023-05-20T19:58:11.250Z,2.40
2023-05-20T20:00:38.449Z,2.50
2023-05-20T20:03:07.324Z,2.40
2023-05-20T20:05:34.835Z,2.80
2023-05-20T20:08:02.215Z,2.72
2023-05-20T20:10:30.886Z,2.58
2023-05-20T20:12:57.969Z,2.67
2023-05-20T20:15:25.426Z,2.67
2023-05-20T20:17:52.666Z,2.42
2023-05-20T20:20:19.935Z,2.70
2023-05-20T20:22:47.042Z,2.67
2023-05-20T20:25:14.047Z,2.40
2023-05-20T20:27:44.095Z,2.53
2023-05-20T20:30:15.258Z,2.80
2023-05-20T20:32:42.510Z,2.80
2023-05-20T20:35:10.432Z,2.65
2023-05-20T20:37:38.650Z,2.30
2023-05-20T20:40:08.120Z,2.40
2023-05-20T20:42:35.358Z,2.60
2023-05-20T20:45:04.341Z,2.53
2023-05-20T20:47:31.492Z,2.50
2023-05-20T20:49:58.509Z,2.42
2023-05-20T20:52:25.492Z,2.10
2023-05-20T20:54:53.250Z,2.53
2023-05-20T20:57:22.035Z,2.50
2023-05-20T20:59:51.308Z,2.20
2023-05-20T21:02:19.645Z,2.58
2023-05-20T21:04:47.395Z,2.50
2023-05-20T21:07:18.200Z,2.50
2023-05-20T21:09:45.979Z,2.30
2023-05-20T21:12:13.141Z,2.42
2023-05-20T21:14:40.144Z,2.67
2023-05-20T21:17:07.372Z,2.72
2023-05-20T21:19:34.780Z,2.67
2023-05-20T21:22:01.820Z,2.92
2023-05-20T21:24:28.891Z,2.70
2023-05-20T21:26:56.149Z,2.50
2023-05-20T21:29:23.109Z,2.58
2023-05-20T21:31:50.349Z,2.70
2023-05-20T21:34:17.313Z,3.55
2023-05-20T21:36:44.275Z,2.95
2023-05-20T21:39:11.398Z,2.85
2023-05-20T21:41:38.426Z,2.80
2023-05-20T21:44:05.578Z,2.90
2023-05-20T21:46:32.596Z,2.60
2023-05-20T21:48:59.786Z,3.00
2023-05-20T21:51:26.774Z,3.08
2023-05-20T21:53:53.828Z,2.90
2023-05-20T21:56:21.732Z,2.90
2023-05-20T21:58:48.789Z,2.90
2023-05-20T22:01:15.899Z,2.90
2023-05-20T22:03:48.696Z,2.83
2023-05-20T22:06:17.562Z,2.60
2023-05-20T22:08:45.035Z,3.08
2023-05-20T22:11:12.389Z,3.20
2023-05-20T22:13:41.587Z,3.13
2023-05-20T22:16:08.856Z,3.13
2023-05-20T22:18:36.070Z,2.58
2023-05-20T22:21:04.062Z,2.70
2023-05-20T22:23:31.126Z,2.95
2023-05-20T22:25:58.289Z,2.80
2023-05-20T22:28:26.318Z,3.10
2023-05-20T22:30:53.384Z,2.83
2023-05-20T22:33:22.923Z,3.05
2023-05-20T22:35:51.429Z,2.75
2023-05-20T22:38:18.425Z,2.55
2023-05-20T22:40:45.688Z,2.67
2023-05-20T22:43:16.642Z,2.60
2023-05-20T22:45:44.064Z,2.92
2023-05-20T22:48:12.452Z,2.75
2023-05-20T22:50:39.503Z,2.80
2023-05-20T22:53:06.633Z,2.70
2023-05-20T22:55:33.929Z,2.90
2023-05-20T22:58:01.102Z,2.72
2023-05-20T23:00:28.433Z,2.80
2023-05-20T23:02:56.663Z,2.88
2023-05-20T23:05:23.752Z,2.85
2023-05-20T23:07:53.219Z,2.90
2023-05-20T23:10:20.452Z,2.90
2023-05-20T23:12:47.419Z,2.90
2023-05-20T23:15:14.478Z,3.45
2023-05-20T23:17:41.595Z,3.28
2023-05-20T23:20:11.010Z,3.05
2023-05-20T23:22:38.581Z,2.80
2023-05-20T23:25:05.814Z,3.13
2023-05-20T23:27:33.177Z,2.90
2023-05-20T23:30:00.259Z,2.90
2023-05-20T23:32:27.449Z,3.15
2023-05-20T23:34:55.259Z,2.97
2023-05-20T23:37:22.712Z,2.90
2023-05-20T23:39:49.700Z,2.95
2023-05-20T23:42:17.095Z,2.90
2023-05-20T23:44:44.080Z,3.33
2023-05-20T23:47:13.591Z,3.10
2023-05-20T23:49:41.748Z,3.05
2023-05-20T23:52:08.776Z,3.30
2023-05-20T23:54:35.985Z,3.25
2023-05-20T23:57:03.034Z,3.33
2023-05-20T23:59:29.997Z,3.20
